createdAt,value
2023-10-05T00:02:37.385Z,101220.94
2023-10-05T00:06:07.403Z,101210.19
2023-10-05T00:09:31.168Z,101211.28
2023-10-05T00:12:56.607Z,101216.31
2023-10-05T00:16:23.261Z,101226.56
2023-10-05T00:19:47.926Z,101219.78
2023-10-05T00:23:12.000Z,101237.28
2023-10-05T00:26:36.467Z,101233.59
2023-10-05T00:30:00.209Z,101237.44
2023-10-05T00:33:26.649Z,101239.00
2023-10-05T00:36:51.865Z,101244.81
2023-10-05T00:40:32.371Z,101235.12
2023-10-05T00:43:56.940Z,101233.25
2023-10-05T00:47:21.103Z,101236.16
2023-10-05T00:50:48.062Z,101234.41
2023-10-05T00:54:16.077Z,101237.63
2023-10-05T00:57:39.920Z,101239.94
2023-10-05T01:01:07.331Z,101235.31
2023-10-05T01:04:36.365Z,101240.53
2023-10-05T01:08:05.740Z,101243.25
2023-10-05T01:11:38.773Z,101228.53
2023-10-05T01:15:06.724Z,101232.84
2023-10-05T01:18:32.541Z,101228.44
2023-10-05T01:21:58.886Z,101226.34
2023-10-05T01:25:23.951Z,101219.59
2023-10-05T01:28:47.927Z,101216.31
2023-10-05T01:32:12.460Z,101216.03
2023-10-05T01:35:39.164Z,101225.09
2023-10-05T01:39:09.707Z,101230.94
2023-10-05T01:42:35.130Z,101214.66
2023-10-05T01:45:58.954Z,101223.50
2023-10-05T01:49:23.229Z,101216.81
2023-10-05T01:52:47.510Z,101207.69
2023-10-05T01:56:19.242Z,101214.25
2023-10-05T01:59:45.576Z,101217.19
2023-10-05T02:03:11.547Z,101214.97
2023-10-05T02:06:41.470Z,101222.19
2023-10-05T02:10:11.024Z,101216.13
2023-10-05T02:13:34.944Z,101211.03
2023-10-05T02:17:00.229Z,101215.16
2023-10-05T02:20:39.953Z,101218.41
2023-10-05T02:24:12.137Z,101205.28
2023-10-05T02:27:39.906Z,101210.84
2023-10-05T02:31:10.397Z,101200.25
2023-10-05T02:34:41.185Z,101203.59
2023-10-05T02:38:07.740Z,101208.84
2023-10-05T02:41:39.659Z,101212.03
2023-10-05T02:45:05.981Z,101199.94
2023-10-05T02:48:32.164Z,101192.34
2023-10-05T02:51:56.701Z,101191.34
2023-10-05T02:55:19.879Z,101184.56
2023-10-05T02:58:45.051Z,101184.31
2023-10-05T03:02:10.972Z,101177.91
2023-10-05T03:05:36.740Z,101180.09
2023-10-05T03:09:08.729Z,101182.75
2023-10-05T03:12:33.804Z,101176.41
2023-10-05T03:16:00.841Z,101179.66
2023-10-05T03:19:24.916Z,101179.53
2023-10-05T03:22:48.731Z,101182.56
2023-10-05T03:26:19.778Z,101181.59
2023-10-05T03:29:47.710Z,101176.53
2023-10-05T03:33:14.179Z,101182.16
2023-10-05T03:36:37.838Z,101183.16
2023-10-05T03:40:09.547Z,101180.75
2023-10-05T03:43:34.601Z,101177.38
2023-10-05T03:46:59.370Z,101178.06
2023-10-05T03:50:24.330Z,101171.00
2023-10-05T03:53:54.753Z,101175.09
2023-10-05T03:57:18.362Z,101181.72
2023-10-05T04:00:51.076Z,101178.97
2023-10-05T04:04:15.430Z,101176.53
2023-10-05T04:07:39.855Z,101190.81
2023-10-05T04:11:06.048Z,101205.25
2023-10-05T04:14:30.162Z,101198.63
2023-10-05T04:17:55.712Z,101194.34
2023-10-05T04:21:20.976Z,101193.53
2023-10-05T04:24:46.124Z,101199.41
2023-10-05T04:28:10.429Z,101201.44
2023-10-05T04:31:37.733Z,101200.69
2023-10-05T04:35:09.706Z,101199.81
2023-10-05T04:38:34.066Z,101201.06
2023-10-05T04:42:00.597Z,101189.09
2023-10-05T04:45:25.245Z,101204.16
2023-10-05T04:48:58.470Z,101205.50
2023-10-05T04:52:25.696Z,101207.44
2023-10-05T04:55:55.031Z,101201.16
2023-10-05T04:59:26.500Z,101214.50
2023-10-05T05:03:06.658Z,101209.44
2023-10-05T05:06:33.533Z,101214.81
2023-10-05T05:10:03.558Z,101222.88
2023-10-05T05:13:29.624Z,101230.66
2023-10-05T05:16:53.926Z,101229.44
2023-10-05T05:20:18.810Z,101238.66
2023-10-05T05:23:42.546Z,101241.88
2023-10-05T05:27:13.391Z,101237.37
2023-10-05T05:30:38.098Z,101238.81
2023-10-05T05:34:03.644Z,101238.72
2023-10-05T05:37:30.929Z,101241.66
2023-10-05T05:40:55.380Z,101244.03
2023-10-05T05:44:23.301Z,101229.50
2023-10-05T05:47:47.718Z,101233.47
2023-10-05T05:51:16.043Z,101230.72
2023-10-05T05:54:40.402Z,101235.44
2023-10-05T05:58:06.197Z,101242.34
2023-10-05T06:01:42.760Z,101241.94
2023-10-05T06:05:09.447Z,101235.88
2023-10-05T06:08:32.430Z,101229.03
2023-10-05T06:11:55.596Z,101233.25
2023-10-05T06:15:18.493Z,101220.97
2023-10-05T06:18:43.637Z,101220.44
2023-10-05T06:22:08.159Z,101228.59
2023-10-05T06:25:32.883Z,101220.50
2023-10-05T06:28:57.349Z,101228.59
2023-10-05T06:32:20.718Z,101230.72
2023-10-05T06:35:45.412Z,101228.41
2023-10-05T06:39:08.578Z,101217.47
2023-10-05T06:42:31.838Z,101215.28
2023-10-05T06:45:54.837Z,101214.91
2023-10-05T06:49:17.673Z,101207.97
2023-10-05T06:52:44.674Z,101216.50
2023-10-05T06:56:08.186Z,101218.47
2023-10-05T06:59:32.721Z,101213.25
2023-10-05T07:02:56.576Z,101229.16
2023-10-05T07:06:20.661Z,101227.94
2023-10-05T07:09:46.376Z,101213.03
2023-10-05T07:13:10.776Z,101217.72
2023-10-05T07:16:34.304Z,101219.84
2023-10-05T07:19:58.605Z,101220.16
2023-10-05T07:23:22.456Z,101209.53
2023-10-05T07:26:48.226Z,101215.19
2023-10-05T07:30:12.771Z,101205.72
2023-10-05T07:33:37.379Z,101210.44
2023-10-05T07:37:01.815Z,101212.44
2023-10-05T07:40:27.686Z,101219.13
2023-10-05T07:47:42.449Z,101207.72
2023-10-05T07:51:06.105Z,101211.16
2023-10-05T07:54:30.058Z,101205.72
2023-10-05T07:57:54.364Z,101196.44
2023-10-05T08:01:20.305Z,101208.84
2023-10-05T08:04:46.550Z,101212.28
2023-10-05T08:08:11.995Z,101211.31
2023-10-05T08:11:36.253Z,101210.25
2023-10-05T08:15:01.221Z,101215.03
2023-10-05T08:18:27.333Z,101206.94
2023-10-05T08:21:51.067Z,101204.69
2023-10-05T08:25:14.877Z,101209.78
2023-10-05T08:28:38.798Z,101223.47
2023-10-05T08:32:03.571Z,101214.38
2023-10-05T08:35:28.970Z,101219.63
2023-10-05T08:38:55.691Z,101215.53
2023-10-05T08:42:19.487Z,101217.44
2023-10-05T08:45:53.371Z,101211.38
2023-10-05T08:49:17.870Z,101214.16
2023-10-05T08:52:43.864Z,101214.78
2023-10-05T08:56:06.585Z,101211.72
2023-10-05T08:59:30.268Z,101211.53
2023-10-05T09:02:54.335Z,101207.59
2023-10-05T09:06:22.525Z,101210.34
2023-10-05T09:09:55.910Z,101212.22
2023-10-05T09:13:24.799Z,101210.63
2023-10-05T09:16:57.429Z,101210.81
2023-10-05T09:20:24.821Z,101213.66
2023-10-05T09:23:52.756Z,101201.59
2023-10-05T09:27:18.955Z,101205.06
2023-10-05T09:30:57.479Z,101192.87
2023-10-05T09:34:22.536Z,101194.62
2023-10-05T09:37:48.099Z,101190.53
2023-10-05T09:41:13.311Z,101188.38
2023-10-05T09:44:38.715Z,101185.75
2023-10-05T09:48:03.791Z,101185.69
2023-10-05T09:51:28.179Z,101182.13
2023-10-05T09:54:52.573Z,101166.22
2023-10-05T09:58:19.811Z,101169.41
2023-10-05T10:01:49.260Z,101168.06
2023-10-05T10:05:31.861Z,101168.28
2023-10-05T10:09:09.199Z,101167.50
2023-10-05T10:12:40.142Z,101165.16
2023-10-05T10:16:05.314Z,101165.34
2023-10-05T10:19:46.916Z,101145.00
2023-10-05T10:23:16.446Z,101151.41
2023-10-05T10:26:43.177Z,101147.12
2023-10-05T10:30:14.154Z,101135.41
2023-10-05T10:33:38.794Z,101135.00
2023-10-05T10:37:05.019Z,101130.00
2023-10-05T10:40:31.845Z,101131.69
2023-10-05T10:43:58.942Z,101126.13
2023-10-05T10:47:24.115Z,101123.12
2023-10-05T10:50:49.218Z,101103.94
2023-10-05T10:54:17.169Z,101103.12
2023-10-05T10:57:40.395Z,101094.63
2023-10-05T11:01:05.888Z,101085.69
2023-10-05T11:04:50.128Z,101079.41
2023-10-05T11:08:22.324Z,101079.03
2023-10-05T11:11:46.909Z,101066.53
2023-10-05T11:15:12.924Z,101067.00
2023-10-05T11:18:42.564Z,101062.53
2023-10-05T11:22:13.666Z,101055.66
2023-10-05T11:25:38.253Z,101053.53
2023-10-05T11:29:11.718Z,101050.78
2023-10-05T11:32:55.733Z,101044.13
2023-10-05T11:36:23.973Z,101043.69
2023-10-05T11:39:51.222Z,101044.34
2023-10-05T11:43:16.998Z,101042.34
2023-10-05T11:46:45.772Z,101044.41
2023-10-05T11:50:10.571Z,101040.53
2023-10-05T11:53:33.577Z,101041.78
2023-10-05T11:56:57.352Z,101027.31
2023-10-05T12:00:21.286Z,101023.09
2023-10-05T12:03:48.882Z,101025.56
2023-10-05T12:07:14.491Z,101009.16
2023-10-05T12:10:39.582Z,101018.28
2023-10-05T12:14:06.209Z,101007.53
2023-10-05T12:17:30.645Z,100999.00
2023-10-05T12:20:55.868Z,100992.22
2023-10-05T12:24:19.152Z,100979.34
2023-10-05T12:27:42.632Z,100986.56
2023-10-05T12:31:08.265Z,100989.81
2023-10-05T12:34:33.583Z,100984.38
2023-10-05T12:38:00.244Z,100984.00
2023-10-05T12:41:23.839Z,100974.00
2023-10-05T12:44:49.012Z,100974.59
2023-10-05T12:48:13.579Z,100970.62
2023-10-05T12:51:37.765Z,100975.91
2023-10-05T12:55:03.599Z,100969.84
2023-10-05T12:58:27.458Z,100947.38
2023-10-05T13:01:51.006Z,100953.06
2023-10-05T13:05:28.602Z,100941.78
2023-10-05T13:08:57.632Z,100946.41
2023-10-05T13:12:23.303Z,100941.47
2023-10-05T13:15:47.826Z,100943.47
2023-10-05T13:19:14.695Z,100936.50
2023-10-05T13:22:39.211Z,100931.94
2023-10-05T13:26:03.395Z,100931.22
2023-10-05T13:29:28.955Z,100930.88
2023-10-05T13:32:59.482Z,100930.81
2023-10-05T13:36:23.593Z,100923.97
2023-10-05T13:39:47.493Z,100909.00
2023-10-05T13:43:12.862Z,100907.28
2023-10-05T13:46:44.803Z,100901.56
2023-10-05T13:50:10.600Z,100901.47
2023-10-05T13:53:36.583Z,100904.63
2023-10-05T13:57:01.960Z,100892.62
2023-10-05T14:00:26.496Z,100903.19
2023-10-05T14:03:51.917Z,100895.56
2023-10-05T14:07:15.506Z,100894.72
2023-10-05T14:10:39.478Z,100890.34
2023-10-05T14:14:02.609Z,100890.94
2023-10-05T14:17:27.165Z,100881.37
2023-10-05T14:20:52.657Z,100878.56
2023-10-05T14:24:19.543Z,100875.25
2023-10-05T14:27:48.515Z,100874.72
2023-10-05T14:31:12.837Z,100868.31
2023-10-05T14:34:36.870Z,100869.47
2023-10-05T14:38:04.513Z,100864.78
2023-10-05T14:41:27.352Z,100863.16
2023-10-05T14:44:51.347Z,100861.91
2023-10-05T14:48:15.640Z,100854.63
2023-10-05T14:51:40.151Z,100857.66
2023-10-05T14:55:05.583Z,100860.50
2023-10-05T14:58:31.130Z,100857.37
2023-10-05T15:01:56.654Z,100851.53
2023-10-05T15:05:21.058Z,100855.78
2023-10-05T15:08:47.136Z,100851.13
2023-10-05T15:12:12.407Z,100849.06
2023-10-05T15:15:35.801Z,100850.84
2023-10-05T15:19:00.847Z,100855.25
2023-10-05T15:22:26.697Z,100857.53
2023-10-05T15:25:52.055Z,100853.09
2023-10-05T15:29:18.362Z,100851.47
2023-10-05T15:32:43.034Z,100855.09
2023-10-05T15:36:07.627Z,100847.72
2023-10-05T15:39:32.263Z,100843.53
2023-10-05T15:42:56.259Z,100842.09
2023-10-05T15:46:21.774Z,100844.63
2023-10-05T15:49:46.823Z,100848.50
2023-10-05T15:53:11.304Z,100851.00
2023-10-05T15:56:34.926Z,100853.34
2023-10-05T15:59:59.129Z,100844.63
2023-10-05T16:03:24.437Z,100851.13
2023-10-05T16:06:48.712Z,100843.91
2023-10-05T16:10:12.598Z,100853.44
2023-10-05T16:13:36.965Z,100857.97
2023-10-05T16:17:00.730Z,100857.19
2023-10-05T16:20:27.877Z,100865.06
2023-10-05T16:23:51.561Z,100854.13
2023-10-05T16:27:15.684Z,100872.09
2023-10-05T16:30:39.676Z,100862.19
2023-10-05T16:34:04.500Z,100856.59
2023-10-05T16:37:32.218Z,100862.47
2023-10-05T16:40:58.537Z,100865.34
2023-10-05T16:44:23.359Z,100861.06
2023-10-05T16:47:47.726Z,100861.94
2023-10-05T16:51:12.122Z,100862.34
2023-10-05T16:54:40.029Z,100867.53
2023-10-05T16:58:05.898Z,100874.69
2023-10-05T17:01:30.854Z,100877.72
2023-10-05T17:04:55.806Z,100879.19
2023-10-05T17:08:23.279Z,100876.12
2023-10-05T17:11:49.125Z,100872.91
2023-10-05T17:15:14.672Z,100880.63
2023-10-05T17:18:40.675Z,100886.34
2023-10-05T17:22:06.167Z,100878.63
2023-10-05T17:25:34.748Z,100887.31
2023-10-05T17:29:00.999Z,100880.84
2023-10-05T17:32:26.550Z,100893.12
2023-10-05T17:35:53.074Z,100895.66
2023-10-05T17:39:17.776Z,100903.22
2023-10-05T17:42:43.203Z,100903.72
2023-10-05T17:46:11.409Z,100906.47
2023-10-05T17:49:39.273Z,100905.97
2023-10-05T17:53:08.149Z,100908.84
2023-10-05T17:56:34.956Z,100904.91
2023-10-05T17:59:59.287Z,100906.41
2023-10-05T18:03:28.622Z,100910.47
2023-10-05T18:06:54.723Z,100905.91
2023-10-05T18:10:20.348Z,100914.97
2023-10-05T18:13:48.008Z,100924.06
2023-10-05T18:17:12.774Z,100919.63
2023-10-05T18:20:41.532Z,100911.00
2023-10-05T18:24:10.206Z,100918.78
2023-10-05T18:27:37.579Z,100926.34
2023-10-05T18:31:07.170Z,100931.03
2023-10-05T18:34:34.472Z,100927.06
2023-10-05T18:38:03.438Z,100920.03
2023-10-05T18:41:31.110Z,100918.56
2023-10-05T18:44:57.752Z,100927.44
2023-10-05T18:48:23.804Z,100925.97
2023-10-05T18:51:52.496Z,100933.66
2023-10-05T18:55:22.493Z,100929.78
2023-10-05T18:58:48.748Z,100936.59
2023-10-05T19:02:19.869Z,100937.47
2023-10-05T19:05:46.683Z,100944.66
2023-10-05T19:09:14.391Z,100955.03
2023-10-05T19:12:44.123Z,100948.87
2023-10-05T19:16:12.482Z,100949.53
2023-10-05T19:19:39.019Z,100956.13
2023-10-05T19:23:06.947Z,100961.88
2023-10-05T19:26:33.371Z,100963.13
2023-10-05T19:30:01.066Z,100963.13
2023-10-05T19:33:26.948Z,100963.47
2023-10-05T19:36:52.068Z,100966.94
2023-10-05T19:40:19.706Z,100963.22
2023-10-05T19:43:46.533Z,100966.94
2023-10-05T19:47:20.006Z,100974.53
2023-10-05T19:50:46.146Z,100974.44
2023-10-05T19:54:14.371Z,100977.56
2023-10-05T19:57:41.672Z,100985.63
2023-10-05T20:01:08.518Z,100988.44
2023-10-05T20:04:37.114Z,100987.28
2023-10-05T20:08:05.103Z,100991.69
2023-10-05T20:11:30.073Z,100989.72
2023-10-05T20:14:55.789Z,100994.03
2023-10-05T20:18:22.399Z,100988.53
2023-10-05T20:21:51.604Z,100993.31
2023-10-05T20:25:16.636Z,100989.50
2023-10-05T20:28:42.906Z,100995.06
2023-10-05T20:32:07.327Z,100989.44
2023-10-05T20:35:31.793Z,100990.53
2023-10-05T20:38:57.516Z,100988.69
2023-10-05T20:42:21.582Z,100992.19
2023-10-05T20:45:45.958Z,100999.34
2023-10-05T20:49:10.766Z,100997.22
2023-10-05T20:52:35.184Z,100987.22
2023-10-05T20:56:00.548Z,100985.72
2023-10-05T20:59:27.997Z,100975.66
2023-10-05T21:02:52.379Z,100977.03
2023-10-05T21:06:17.210Z,100965.87
2023-10-05T21:09:41.863Z,100969.75
2023-10-05T21:13:07.582Z,100968.25
2023-10-05T21:16:31.817Z,100959.72
2023-10-05T21:19:56.452Z,100962.00
2023-10-05T21:23:20.962Z,100972.41
2023-10-05T21:26:45.208Z,100963.81
2023-10-05T21:30:12.710Z,100970.38
2023-10-05T21:33:36.943Z,100973.47
2023-10-05T21:37:01.055Z,100967.75
2023-10-05T21:40:25.622Z,100967.22
2023-10-05T21:43:50.268Z,100961.97
2023-10-05T21:47:17.069Z,100957.38
2023-10-05T21:50:40.735Z,100968.06
2023-10-05T21:54:05.369Z,100967.56
2023-10-05T21:57:29.658Z,100976.13
2023-10-05T22:00:55.624Z,100971.09
2023-10-05T22:04:21.756Z,100968.25
2023-10-05T22:07:47.520Z,100985.00
2023-10-05T22:11:12.578Z,100974.91
2023-10-05T22:14:36.736Z,100976.41
2023-10-05T22:18:01.019Z,100987.00
2023-10-05T22:21:26.339Z,100985.25
2023-10-05T22:24:51.032Z,100991.00
2023-10-05T22:28:15.058Z,100991.75
2023-10-05T22:31:39.593Z,101004.66
2023-10-05T22:35:04.965Z,101011.59
2023-10-05T22:38:41.585Z,101002.81
2023-10-05T22:42:08.759Z,101003.13
2023-10-05T22:45:34.150Z,101008.38
2023-10-05T22:48:58.711Z,101009.63
2023-10-05T22:52:22.596Z,101015.59
2023-10-05T22:55:47.932Z,101015.38
2023-10-05T22:59:12.107Z,101018.88
2023-10-05T23:02:35.962Z,101026.56
2023-10-05T23:06:00.271Z,101032.28
2023-10-05T23:09:24.742Z,101033.50
2023-10-05T23:12:50.313Z,101029.59
2023-10-05T23:16:19.083Z,101024.25
2023-10-05T23:19:44.905Z,101027.47
2023-10-05T23:23:09.429Z,101031.31
2023-10-05T23:26:33.615Z,101029.19
2023-10-05T23:29:59.092Z,101035.53
2023-10-05T23:33:27.488Z,101027.72
2023-10-05T23:36:51.781Z,101027.53
2023-10-05T23:40:17.397Z,101031.66
2023-10-05T23:43:42.421Z,101035.97
2023-10-05T23:47:23.823Z,101035.47
2023-10-05T23:50:48.652Z,101031.13
2023-10-05T23:54:13.191Z,101034.72
2023-10-05T23:57:37.764Z,101035.06
